LFRD/DNR METAR and TAF weather

Enter ICAO airport designator
Station Type Date Time Source
LFRD METAR 2019/08/24 22:30 UTC NOAA

LFRD 242230Z AUTO 31006KT CAVOK 18/16 Q1017 TEMPO 3000 BR BKN003


Station Type Date Time Source
LFRD Decoded METAR 2019/08/24 22:30 UTC NOAA

Station name not available
Aug 24, 2019 - 06:30 PM EDT / 2019.08.24 2230 UTC
Wind: from the NW (310 degrees) at 7 MPH (6 KT):0
Visibility: greater than 7 mile(s):0
Temperature: 64 F (18 C)
Dew Point: 60 F (16 C)
Relative Humidity: 88%
Pressure (altimeter): 30.03 in. Hg (1017 hPa)
ob: LFRD 242230Z AUTO 31006KT CAVOK 18/16 Q1017 TEMPO 3000 BR BKN003
cycle: 22

Station Type Date Time Source
LFRD TAF 2019/08/24 18:21 UTC NOAA

TAF LFRD 241700Z 2418/2518 22010KT CAVOK
TEMPO 2418/2422 32010KT
BECMG 2422/2424 VRB05KT BKN006
TEMPO 2500/2507 3000 BR BKN003
BECMG 2508/2510 BKN012
BECMG 2510/2512 34010KT SCT020

Example: see airport list